sensor_id;sensor_type;location;lat;lon;timestamp;P1;durP1;ratioP1;P2;durP2;ratioP2
55090;SDS011;40985;53.180;5.800;2023-04-24T00:01:42;7.65;;;7.05;;
55090;SDS011;40985;53.180;5.800;2023-04-24T00:04:08;7.18;;;6.55;;
55090;SDS011;40985;53.180;5.800;2023-04-24T00:06:36;9.10;;;6.82;;
55090;SDS011;40985;53.180;5.800;2023-04-24T00:09:03;9.23;;;7.60;;
55090;SDS011;40985;53.180;5.800;2023-04-24T00:11:29;9.85;;;8.40;;
55090;SDS011;40985;53.180;5.800;2023-04-24T00:13:55;14.30;;;9.57;;
55090;SDS011;40985;53.180;5.800;2023-04-24T00:16:22;12.88;;;8.80;;
55090;SDS011;40985;53.180;5.800;2023-04-24T00:18:48;11.00;;;9.20;;
55090;SDS011;40985;53.180;5.800;2023-04-24T00:21:14;12.30;;;9.27;;
55090;SDS011;40985;53.180;5.800;2023-04-24T00:23:42;13.25;;;9.25;;
55090;SDS011;40985;53.180;5.800;2023-04-24T00:26:09;9.80;;;9.00;;
55090;SDS011;40985;53.180;5.800;2023-04-24T00:28:35;10.07;;;9.13;;
55090;SDS011;40985;53.180;5.800;2023-04-24T00:31:01;10.05;;;8.55;;
55090;SDS011;40985;53.180;5.800;2023-04-24T00:33:26;8.23;;;7.32;;
55090;SDS011;40985;53.180;5.800;2023-04-24T00:35:52;9.75;;;8.85;;
55090;SDS011;40985;53.180;5.800;2023-04-24T00:38:18;10.98;;;9.98;;
55090;SDS011;40985;53.180;5.800;2023-04-24T00:40:43;10.65;;;9.60;;
55090;SDS011;40985;53.180;5.800;2023-04-24T00:43:09;12.02;;;9.60;;
55090;SDS011;40985;53.180;5.800;2023-04-24T00:45:36;8.95;;;8.07;;
55090;SDS011;40985;53.180;5.800;2023-04-24T00:48:01;9.15;;;8.35;;
55090;SDS011;40985;53.180;5.800;2023-04-24T00:50:27;9.65;;;8.70;;
55090;SDS011;40985;53.180;5.800;2023-04-24T00:52:53;10.00;;;9.13;;
55090;SDS011;40985;53.180;5.800;2023-04-24T00:55:19;10.15;;;9.15;;
55090;SDS011;40985;53.180;5.800;2023-04-24T00:57:46;10.48;;;9.68;;
55090;SDS011;40985;53.180;5.800;2023-04-24T01:00:12;9.85;;;8.93;;
55090;SDS011;40985;53.180;5.800;2023-04-24T01:02:39;9.45;;;8.68;;
55090;SDS011;40985;53.180;5.800;2023-04-24T01:05:09;10.05;;;9.20;;
55090;SDS011;40985;53.180;5.800;2023-04-24T01:07:35;11.10;;;10.00;;
55090;SDS011;40985;53.180;5.800;2023-04-24T01:10:01;10.25;;;9.45;;
55090;SDS011;40985;53.180;5.800;2023-04-24T01:12:28;11.18;;;10.18;;
55090;SDS011;40985;53.180;5.800;2023-04-24T01:14:54;10.23;;;8.85;;
55090;SDS011;40985;53.180;5.800;2023-04-24T01:17:21;9.63;;;8.73;;
55090;SDS011;40985;53.180;5.800;2023-04-24T01:19:47;10.57;;;9.57;;
55090;SDS011;40985;53.180;5.800;2023-04-24T01:22:13;10.60;;;9.50;;
55090;SDS011;40985;53.180;5.800;2023-04-24T01:24:40;8.93;;;8.15;;
55090;SDS011;40985;53.180;5.800;2023-04-24T01:27:06;9.63;;;8.93;;
55090;SDS011;40985;53.180;5.800;2023-04-24T01:29:33;8.88;;;8.27;;
55090;SDS011;40985;53.180;5.800;2023-04-24T01:32:00;10.20;;;8.88;;
55090;SDS011;40985;53.180;5.800;2023-04-24T01:34:26;8.00;;;7.38;;
55090;SDS011;40985;53.180;5.800;2023-04-24T01:36:51;9.30;;;8.50;;
55090;SDS011;40985;53.180;5.800;2023-04-24T01:39:17;9.00;;;8.30;;
55090;SDS011;40985;53.180;5.800;2023-04-24T01:41:45;9.38;;;8.52;;
55090;SDS011;40985;53.180;5.800;2023-04-24T01:44:11;10.50;;;9.60;;
55090;SDS011;40985;53.180;5.800;2023-04-24T01:46:37;10.15;;;9.25;;
55090;SDS011;40985;53.180;5.800;2023-04-24T01:49:03;9.30;;;8.48;;
55090;SDS011;40985;53.180;5.800;2023-04-24T01:51:29;9.27;;;8.52;;
55090;SDS011;40985;53.180;5.800;2023-04-24T01:53:55;8.95;;;8.20;;
55090;SDS011;40985;53.180;5.800;2023-04-24T01:56:21;8.95;;;8.25;;
55090;SDS011;40985;53.180;5.800;2023-04-24T01:58:47;9.27;;;8.38;;
55090;SDS011;40985;53.180;5.800;2023-04-24T02:01:19;8.80;;;7.97;;
55090;SDS011;40985;53.180;5.800;2023-04-24T02:03:45;9.07;;;8.18;;
55090;SDS011;40985;53.180;5.800;2023-04-24T02:06:11;9.63;;;8.73;;
55090;SDS011;40985;53.180;5.800;2023-04-24T02:08:36;10.13;;;9.23;;
55090;SDS011;40985;53.180;5.800;2023-04-24T02:11:02;8.82;;;8.13;;
55090;SDS011;40985;53.180;5.800;2023-04-24T02:13:28;9.20;;;8.30;;
55090;SDS011;40985;53.180;5.800;2023-04-24T02:15:54;9.05;;;8.32;;
55090;SDS011;40985;53.180;5.800;2023-04-24T02:18:20;10.68;;;9.88;;
55090;SDS011;40985;53.180;5.800;2023-04-24T02:20:45;11.07;;;9.85;;
55090;SDS011;40985;53.180;5.800;2023-04-24T02:23:11;9.85;;;8.98;;
55090;SDS011;40985;53.180;5.800;2023-04-24T02:25:38;7.30;;;6.70;;
55090;SDS011;40985;53.180;5.800;2023-04-24T02:28:04;9.45;;;8.55;;
55090;SDS011;40985;53.180;5.800;2023-04-24T02:30:29;9.80;;;8.82;;
55090;SDS011;40985;53.180;5.800;2023-04-24T02:32:55;7.30;;;6.70;;
55090;SDS011;40985;53.180;5.800;2023-04-24T02:35:21;6.57;;;5.97;;
55090;SDS011;40985;53.180;5.800;2023-04-24T02:37:47;3.38;;;3.17;;
55090;SDS011;40985;53.180;5.800;2023-04-24T02:40:12;2.80;;;2.60;;
55090;SDS011;40985;53.180;5.800;2023-04-24T02:42:38;1.45;;;1.35;;
55090;SDS011;40985;53.180;5.800;2023-04-24T02:45:04;1.40;;;1.20;;
55090;SDS011;40985;53.180;5.800;2023-04-24T02:47:30;1.10;;;1.00;;
55090;SDS011;40985;53.180;5.800;2023-04-24T02:49:55;1.65;;;1.40;;
55090;SDS011;40985;53.180;5.800;2023-04-24T02:52:21;2.35;;;2.15;;
55090;SDS011;40985;53.180;5.800;2023-04-24T02:54:47;2.30;;;1.63;;
55090;SDS011;40985;53.180;5.800;2023-04-24T02:57:12;3.15;;;2.58;;
55090;SDS011;40985;53.180;5.800;2023-04-24T02:59:38;3.17;;;2.58;;
55090;SDS011;40985;53.180;5.800;2023-04-24T03:02:04;2.60;;;2.38;;
55090;SDS011;40985;53.180;5.800;2023-04-24T03:04:30;1.73;;;1.63;;
55090;SDS011;40985;53.180;5.800;2023-04-24T03:06:57;2.55;;;1.30;;
55090;SDS011;40985;53.180;5.800;2023-04-24T03:09:22;1.73;;;1.48;;
55090;SDS011;40985;53.180;5.800;2023-04-24T03:11:48;2.70;;;1.70;;
55090;SDS011;40985;53.180;5.800;2023-04-24T03:14:15;3.30;;;1.83;;
55090;SDS011;40985;53.180;5.800;2023-04-24T03:16:41;2.85;;;1.20;;
55090;SDS011;40985;53.180;5.800;2023-04-24T03:19:06;2.22;;;0.80;;
55090;SDS011;40985;53.180;5.800;2023-04-24T03:21:32;2.55;;;0.73;;
55090;SDS011;40985;53.180;5.800;2023-04-24T03:23:58;2.35;;;0.82;;
55090;SDS011;40985;53.180;5.800;2023-04-24T03:26:24;1.75;;;1.30;;
55090;SDS011;40985;53.180;5.800;2023-04-24T03:28:50;3.60;;;3.30;;
55090;SDS011;40985;53.180;5.800;2023-04-24T03:31:15;3.67;;;3.38;;
55090;SDS011;40985;53.180;5.800;2023-04-24T03:33:41;5.28;;;4.28;;
55090;SDS011;40985;53.180;5.800;2023-04-24T03:36:07;5.90;;;4.75;;
55090;SDS011;40985;53.180;5.800;2023-04-24T03:38:33;8.20;;;5.85;;
55090;SDS011;40985;53.180;5.800;2023-04-24T03:40:59;5.57;;;5.07;;
55090;SDS011;40985;53.180;5.800;2023-04-24T03:43:24;5.30;;;4.80;;
55090;SDS011;40985;53.180;5.800;2023-04-24T03:45:52;7.22;;;5.57;;
55090;SDS011;40985;53.180;5.800;2023-04-24T03:48:18;6.72;;;6.13;;
55090;SDS011;40985;53.180;5.800;2023-04-24T03:50:43;8.90;;;7.35;;
55090;SDS011;40985;53.180;5.800;2023-04-24T03:53:09;6.82;;;6.03;;
55090;SDS011;40985;53.180;5.800;2023-04-24T03:55:35;6.97;;;5.63;;
55090;SDS011;40985;53.180;5.800;2023-04-24T03:58:01;6.25;;;5.55;;
55090;SDS011;40985;53.180;5.800;2023-04-24T04:00:26;7.07;;;5.88;;
55090;SDS011;40985;53.180;5.800;2023-04-24T04:02:52;6.00;;;5.00;;
55090;SDS011;40985;53.180;5.800;2023-04-24T04:05:18;6.40;;;5.43;;
55090;SDS011;40985;53.180;5.800;2023-04-24T04:07:44;6.25;;;4.50;;
55090;SDS011;40985;53.180;5.800;2023-04-24T04:10:10;6.60;;;4.55;;
55090;SDS011;40985;53.180;5.800;2023-04-24T04:12:36;8.20;;;5.15;;
55090;SDS011;40985;53.180;5.800;2023-04-24T04:15:02;6.45;;;5.70;;
55090;SDS011;40985;53.180;5.800;2023-04-24T04:17:29;6.35;;;5.68;;
55090;SDS011;40985;53.180;5.800;2023-04-24T04:19:55;7.88;;;6.43;;
55090;SDS011;40985;53.180;5.800;2023-04-24T04:22:21;8.90;;;6.80;;
55090;SDS011;40985;53.180;5.800;2023-04-24T04:24:47;8.18;;;7.07;;
55090;SDS011;40985;53.180;5.800;2023-04-24T04:27:12;6.43;;;5.80;;
55090;SDS011;40985;53.180;5.800;2023-04-24T04:29:38;5.57;;;5.05;;
55090;SDS011;40985;53.180;5.800;2023-04-24T04:32:05;5.15;;;3.53;;
55090;SDS011;40985;53.180;5.800;2023-04-24T04:34:31;3.47;;;3.17;;
55090;SDS011;40985;53.180;5.800;2023-04-24T04:36:57;3.78;;;1.50;;
55090;SDS011;40985;53.180;5.800;2023-04-24T04:39:26;3.45;;;0.70;;
55090;SDS011;40985;53.180;5.800;2023-04-24T04:41:53;1.30;;;0.73;;
55090;SDS011;40985;53.180;5.800;2023-04-24T04:44:19;2.42;;;0.93;;
55090;SDS011;40985;53.180;5.800;2023-04-24T04:46:44;2.17;;;1.30;;
55090;SDS011;40985;53.180;5.800;2023-04-24T04:49:10;2.75;;;2.05;;
55090;SDS011;40985;53.180;5.800;2023-04-24T04:51:36;4.22;;;2.85;;
55090;SDS011;40985;53.180;5.800;2023-04-24T04:54:01;9.02;;;5.35;;
55090;SDS011;40985;53.180;5.800;2023-04-24T04:56:27;9.13;;;6.75;;
55090;SDS011;40985;53.180;5.800;2023-04-24T04:58:53;14.77;;;8.13;;
55090;SDS011;40985;53.180;5.800;2023-04-24T05:01:19;14.57;;;9.75;;
55090;SDS011;40985;53.180;5.800;2023-04-24T05:03:44;17.88;;;10.57;;
55090;SDS011;40985;53.180;5.800;2023-04-24T05:06:10;16.73;;;10.00;;
55090;SDS011;40985;53.180;5.800;2023-04-24T05:08:36;13.35;;;10.13;;
55090;SDS011;40985;53.180;5.800;2023-04-24T05:11:01;15.80;;;10.75;;
55090;SDS011;40985;53.180;5.800;2023-04-24T05:13:27;13.68;;;8.90;;
55090;SDS011;40985;53.180;5.800;2023-04-24T05:15:53;9.70;;;6.93;;
55090;SDS011;40985;53.180;5.800;2023-04-24T05:18:18;7.53;;;5.25;;
55090;SDS011;40985;53.180;5.800;2023-04-24T05:20:44;5.72;;;4.22;;
55090;SDS011;40985;53.180;5.800;2023-04-24T05:23:10;5.78;;;3.28;;
55090;SDS011;40985;53.180;5.800;2023-04-24T05:25:36;4.07;;;3.17;;
55090;SDS011;40985;53.180;5.800;2023-04-24T05:28:04;3.35;;;3.10;;
55090;SDS011;40985;53.180;5.800;2023-04-24T05:30:30;4.90;;;2.90;;
55090;SDS011;40985;53.180;5.800;2023-04-24T05:32:56;5.30;;;2.97;;
55090;SDS011;40985;53.180;5.800;2023-04-24T05:35:22;5.85;;;3.00;;
55090;SDS011;40985;53.180;5.800;2023-04-24T05:37:47;3.53;;;3.22;;
55090;SDS011;40985;53.180;5.800;2023-04-24T05:40:13;5.70;;;3.33;;
55090;SDS011;40985;53.180;5.800;2023-04-24T05:42:39;5.05;;;3.85;;
55090;SDS011;40985;53.180;5.800;2023-04-24T05:45:05;3.25;;;2.90;;
55090;SDS011;40985;53.180;5.800;2023-04-24T05:47:31;2.80;;;2.30;;
55090;SDS011;40985;53.180;5.800;2023-04-24T05:49:56;3.33;;;2.20;;
55090;SDS011;40985;53.180;5.800;2023-04-24T05:52:22;3.55;;;1.58;;
55090;SDS011;40985;53.180;5.800;2023-04-24T05:54:48;4.32;;;1.10;;
55090;SDS011;40985;53.180;5.800;2023-04-24T05:57:13;2.40;;;1.60;;
55090;SDS011;40985;53.180;5.800;2023-04-24T05:59:40;4.38;;;1.60;;
55090;SDS011;40985;53.180;5.800;2023-04-24T06:02:06;3.63;;;1.00;;
55090;SDS011;40985;53.180;5.800;2023-04-24T06:04:32;2.08;;;0.80;;
55090;SDS011;40985;53.180;5.800;2023-04-24T06:06:58;5.18;;;1.20;;
55090;SDS011;40985;53.180;5.800;2023-04-24T06:09:24;3.83;;;0.70;;
55090;SDS011;40985;53.180;5.800;2023-04-24T06:11:51;4.10;;;0.60;;
55090;SDS011;40985;53.180;5.800;2023-04-24T06:14:19;4.57;;;0.70;;
55090;SDS011;40985;53.180;5.800;2023-04-24T06:16:46;2.60;;;0.60;;
55090;SDS011;40985;53.180;5.800;2023-04-24T06:19:11;4.50;;;0.50;;
55090;SDS011;40985;53.180;5.800;2023-04-24T06:21:37;3.10;;;0.70;;
55090;SDS011;40985;53.180;5.800;2023-04-24T06:24:03;3.83;;;0.70;;
55090;SDS011;40985;53.180;5.800;2023-04-24T06:26:29;4.63;;;0.88;;
55090;SDS011;40985;53.180;5.800;2023-04-24T06:28:55;4.60;;;1.52;;
55090;SDS011;40985;53.180;5.800;2023-04-24T06:31:21;7.82;;;4.22;;
55090;SDS011;40985;53.180;5.800;2023-04-24T06:33:48;10.85;;;5.78;;
55090;SDS011;40985;53.180;5.800;2023-04-24T06:36:14;17.30;;;8.75;;
55090;SDS011;40985;53.180;5.800;2023-04-24T06:38:41;21.33;;;11.63;;
55090;SDS011;40985;53.180;5.800;2023-04-24T06:41:06;18.88;;;11.77;;
55090;SDS011;40985;53.180;5.800;2023-04-24T06:43:32;21.55;;;12.85;;
55090;SDS011;40985;53.180;5.800;2023-04-24T06:45:59;22.25;;;12.43;;
55090;SDS011;40985;53.180;5.800;2023-04-24T06:48:25;24.13;;;13.40;;
55090;SDS011;40985;53.180;5.800;2023-04-24T06:50:51;23.20;;;13.43;;
55090;SDS011;40985;53.180;5.800;2023-04-24T06:53:17;22.23;;;14.50;;
55090;SDS011;40985;53.180;5.800;2023-04-24T06:55:43;23.15;;;13.30;;
55090;SDS011;40985;53.180;5.800;2023-04-24T06:58:11;18.15;;;11.10;;
55090;SDS011;40985;53.180;5.800;2023-04-24T07:00:37;15.25;;;10.27;;
55090;SDS011;40985;53.180;5.800;2023-04-24T07:03:03;17.38;;;11.05;;
55090;SDS011;40985;53.180;5.800;2023-04-24T07:05:30;20.85;;;12.18;;
55090;SDS011;40985;53.180;5.800;2023-04-24T07:07:56;23.77;;;12.00;;
55090;SDS011;40985;53.180;5.800;2023-04-24T07:10:23;21.00;;;14.38;;
55090;SDS011;40985;53.180;5.800;2023-04-24T07:12:49;21.88;;;12.93;;
55090;SDS011;40985;53.180;5.800;2023-04-24T07:15:15;22.85;;;13.80;;
55090;SDS011;40985;53.180;5.800;2023-04-24T07:17:41;19.65;;;14.07;;
55090;SDS011;40985;53.180;5.800;2023-04-24T07:20:10;22.35;;;14.65;;
55090;SDS011;40985;53.180;5.800;2023-04-24T07:22:40;21.67;;;14.30;;
55090;SDS011;40985;53.180;5.800;2023-04-24T07:25:06;21.13;;;14.10;;
55090;SDS011;40985;53.180;5.800;2023-04-24T07:27:33;19.38;;;13.60;;
55090;SDS011;40985;53.180;5.800;2023-04-24T07:29:59;21.52;;;13.18;;
55090;SDS011;40985;53.180;5.800;2023-04-24T07:32:25;18.42;;;12.13;;
55090;SDS011;40985;53.180;5.800;2023-04-24T07:34:51;21.65;;;11.52;;
55090;SDS011;40985;53.180;5.800;2023-04-24T07:37:17;13.43;;;10.05;;
55090;SDS011;40985;53.180;5.800;2023-04-24T07:39:42;12.27;;;8.65;;
55090;SDS011;40985;53.180;5.800;2023-04-24T07:42:08;11.70;;;7.38;;
55090;SDS011;40985;53.180;5.800;2023-04-24T07:44:34;14.05;;;6.63;;
55090;SDS011;40985;53.180;5.800;2023-04-24T07:47:01;13.98;;;6.70;;
55090;SDS011;40985;53.180;5.800;2023-04-24T07:49:26;11.90;;;7.38;;
55090;SDS011;40985;53.180;5.800;2023-04-24T07:51:53;9.65;;;6.07;;
55090;SDS011;40985;53.180;5.800;2023-04-24T07:54:18;10.02;;;4.78;;
55090;SDS011;40985;53.180;5.800;2023-04-24T07:56:44;13.90;;;6.47;;
55090;SDS011;40985;53.180;5.800;2023-04-24T07:59:10;8.65;;;5.18;;
55090;SDS011;40985;53.180;5.800;2023-04-24T08:01:36;9.35;;;4.82;;
55090;SDS011;40985;53.180;5.800;2023-04-24T08:04:02;6.22;;;4.20;;
55090;SDS011;40985;53.180;5.800;2023-04-24T08:06:27;11.73;;;4.75;;
55090;SDS011;40985;53.180;5.800;2023-04-24T08:08:59;9.38;;;4.43;;
55090;SDS011;40985;53.180;5.800;2023-04-24T08:11:25;8.55;;;4.63;;
55090;SDS011;40985;53.180;5.800;2023-04-24T08:13:51;7.22;;;4.53;;
55090;SDS011;40985;53.180;5.800;2023-04-24T08:16:17;6.93;;;5.07;;
55090;SDS011;40985;53.180;5.800;2023-04-24T08:18:42;9.00;;;4.10;;
55090;SDS011;40985;53.180;5.800;2023-04-24T08:21:08;7.28;;;4.07;;
55090;SDS011;40985;53.180;5.800;2023-04-24T08:23:34;10.80;;;4.75;;
55090;SDS011;40985;53.180;5.800;2023-04-24T08:25:59;9.90;;;4.82;;
55090;SDS011;40985;53.180;5.800;2023-04-24T08:28:25;9.55;;;4.05;;
55090;SDS011;40985;53.180;5.800;2023-04-24T08:30:51;12.73;;;4.18;;
55090;SDS011;40985;53.180;5.800;2023-04-24T08:33:23;7.50;;;3.35;;
55090;SDS011;40985;53.180;5.800;2023-04-24T08:35:49;9.35;;;3.17;;
55090;SDS011;40985;53.180;5.800;2023-04-24T08:38:15;4.80;;;3.25;;
55090;SDS011;40985;53.180;5.800;2023-04-24T08:40:41;8.20;;;1.65;;
55090;SDS011;40985;53.180;5.800;2023-04-24T08:43:08;5.32;;;1.90;;
55090;SDS011;40985;53.180;5.800;2023-04-24T08:45:35;7.65;;;1.83;;
55090;SDS011;40985;53.180;5.800;2023-04-24T08:48:01;6.47;;;1.50;;
55090;SDS011;40985;53.180;5.800;2023-04-24T08:50:29;7.72;;;1.50;;
55090;SDS011;40985;53.180;5.800;2023-04-24T08:52:56;4.90;;;0.95;;
55090;SDS011;40985;53.180;5.800;2023-04-24T08:55:22;5.60;;;1.35;;
55090;SDS011;40985;53.180;5.800;2023-04-24T08:57:50;7.25;;;1.88;;
55090;SDS011;40985;53.180;5.800;2023-04-24T09:00:20;7.70;;;1.27;;
55090;SDS011;40985;53.180;5.800;2023-04-24T09:02:46;7.05;;;0.80;;
55090;SDS011;40985;53.180;5.800;2023-04-24T09:05:16;5.88;;;1.55;;
55090;SDS011;40985;53.180;5.800;2023-04-24T09:07:44;7.18;;;1.33;;
55090;SDS011;40985;53.180;5.800;2023-04-24T09:10:13;15.27;;;3.38;;
55090;SDS011;40985;53.180;5.800;2023-04-24T09:12:40;7.68;;;1.25;;
55090;SDS011;40985;53.180;5.800;2023-04-24T09:15:07;8.57;;;1.55;;
55090;SDS011;40985;53.180;5.800;2023-04-24T09:17:33;11.95;;;1.30;;
55090;SDS011;40985;53.180;5.800;2023-04-24T09:20:00;9.65;;;0.98;;
55090;SDS011;40985;53.180;5.800;2023-04-24T09:22:29;13.45;;;1.20;;
55090;SDS011;40985;53.180;5.800;2023-04-24T09:25:05;8.93;;;1.48;;
55090;SDS011;40985;53.180;5.800;2023-04-24T09:27:32;6.32;;;1.05;;
55090;SDS011;40985;53.180;5.800;2023-04-24T09:29:59;9.20;;;0.88;;
55090;SDS011;40985;53.180;5.800;2023-04-24T09:32:26;7.32;;;0.68;;
55090;SDS011;40985;53.180;5.800;2023-04-24T09:35:13;7.47;;;0.85;;
55090;SDS011;40985;53.180;5.800;2023-04-24T09:37:46;8.07;;;1.38;;
55090;SDS011;40985;53.180;5.800;2023-04-24T09:40:19;6.15;;;0.68;;
55090;SDS011;40985;53.180;5.800;2023-04-24T09:42:46;8.13;;;0.60;;
55090;SDS011;40985;53.180;5.800;2023-04-24T09:45:22;6.35;;;0.57;;
55090;SDS011;40985;53.180;5.800;2023-04-24T09:47:52;6.25;;;0.80;;
55090;SDS011;40985;53.180;5.800;2023-04-24T09:50:20;11.07;;;0.70;;
55090;SDS011;40985;53.180;5.800;2023-04-24T09:52:55;10.48;;;0.52;;
55090;SDS011;40985;53.180;5.800;2023-04-24T09:55:23;11.68;;;1.25;;
55090;SDS011;40985;53.180;5.800;2023-04-24T09:57:55;8.43;;;0.65;;
55090;SDS011;40985;53.180;5.800;2023-04-24T10:00:22;5.95;;;0.70;;
55090;SDS011;40985;53.180;5.800;2023-04-24T10:03:02;7.25;;;0.60;;
55090;SDS011;40985;53.180;5.800;2023-04-24T10:05:32;7.68;;;0.63;;
55090;SDS011;40985;53.180;5.800;2023-04-24T10:08:06;6.15;;;0.60;;
55090;SDS011;40985;53.180;5.800;2023-04-24T10:10:37;7.13;;;0.60;;
55090;SDS011;40985;53.180;5.800;2023-04-24T10:13:05;7.90;;;1.67;;
55090;SDS011;40985;53.180;5.800;2023-04-24T10:15:33;6.22;;;0.57;;
55090;SDS011;40985;53.180;5.800;2023-04-24T10:17:58;6.88;;;0.50;;
55090;SDS011;40985;53.180;5.800;2023-04-24T10:20:26;5.15;;;0.50;;
55090;SDS011;40985;53.180;5.800;2023-04-24T10:22:56;5.93;;;0.40;;
55090;SDS011;40985;53.180;5.800;2023-04-24T10:25:24;7.95;;;0.80;;
55090;SDS011;40985;53.180;5.800;2023-04-24T10:27:52;7.28;;;0.63;;
55090;SDS011;40985;53.180;5.800;2023-04-24T10:30:19;10.23;;;0.65;;
55090;SDS011;40985;53.180;5.800;2023-04-24T10:32:45;5.05;;;0.50;;
55090;SDS011;40985;53.180;5.800;2023-04-24T10:35:12;10.10;;;0.85;;
55090;SDS011;40985;53.180;5.800;2023-04-24T10:37:46;8.05;;;0.52;;
55090;SDS011;40985;53.180;5.800;2023-04-24T10:40:18;7.43;;;1.17;;
55090;SDS011;40985;53.180;5.800;2023-04-24T10:42:51;6.38;;;0.50;;
55090;SDS011;40985;53.180;5.800;2023-04-24T10:45:21;3.40;;;0.30;;
55090;SDS011;40985;53.180;5.800;2023-04-24T10:47:51;4.80;;;0.40;;
55090;SDS011;40985;53.180;5.800;2023-04-24T10:50:26;7.97;;;0.32;;
55090;SDS011;40985;53.180;5.800;2023-04-24T10:52:53;7.47;;;0.50;;
55090;SDS011;40985;53.180;5.800;2023-04-24T10:55:42;11.23;;;0.55;;
55090;SDS011;40985;53.180;5.800;2023-04-24T10:58:23;5.95;;;0.82;;
55090;SDS011;40985;53.180;5.800;2023-04-24T11:01:00;6.43;;;0.43;;
55090;SDS011;40985;53.180;5.800;2023-04-24T11:03:30;8.13;;;0.45;;
55090;SDS011;40985;53.180;5.800;2023-04-24T11:06:06;6.63;;;0.50;;
55090;SDS011;40985;53.180;5.800;2023-04-24T11:08:42;7.55;;;0.55;;
55090;SDS011;40985;53.180;5.800;2023-04-24T11:11:13;8.35;;;0.57;;
55090;SDS011;40985;53.180;5.800;2023-04-24T11:22:14;3.47;;;0.30;;
55090;SDS011;40985;53.180;5.800;2023-04-24T11:24:30;3.15;;;0.30;;
55090;SDS011;40985;53.180;5.800;2023-04-24T11:27:17;3.22;;;0.30;;
55090;SDS011;40985;53.180;5.800;2023-04-24T11:34:49;4.22;;;0.65;;
55090;SDS011;40985;53.180;5.800;2023-04-24T11:37:17;6.10;;;0.30;;
55090;SDS011;40985;53.180;5.800;2023-04-24T11:39:43;6.43;;;0.30;;
55090;SDS011;40985;53.180;5.800;2023-04-24T11:42:08;5.80;;;0.80;;
55090;SDS011;40985;53.180;5.800;2023-04-24T11:44:35;4.75;;;0.30;;
55090;SDS011;40985;53.180;5.800;2023-04-24T11:47:05;7.38;;;1.15;;
55090;SDS011;40985;53.180;5.800;2023-04-24T11:49:36;5.68;;;0.30;;
55090;SDS011;40985;53.180;5.800;2023-04-24T11:52:02;8.75;;;0.40;;
55090;SDS011;40985;53.180;5.800;2023-04-24T11:54:28;7.40;;;0.20;;
55090;SDS011;40985;53.180;5.800;2023-04-24T11:56:55;3.15;;;0.10;;
55090;SDS011;40985;53.180;5.800;2023-04-24T11:59:21;7.93;;;0.60;;
55090;SDS011;40985;53.180;5.800;2023-04-24T12:01:47;2.47;;;0.20;;
55090;SDS011;40985;53.180;5.800;2023-04-24T12:04:14;3.47;;;0.10;;
55090;SDS011;40985;53.180;5.800;2023-04-24T12:07:00;3.65;;;0.20;;
55090;SDS011;40985;53.180;5.800;2023-04-24T12:09:26;5.60;;;0.10;;
55090;SDS011;40985;53.180;5.800;2023-04-24T12:11:56;2.95;;;0.10;;
55090;SDS011;40985;53.180;5.800;2023-04-24T12:14:22;4.57;;;0.20;;
55090;SDS011;40985;53.180;5.800;2023-04-24T12:16:48;3.53;;;0.17;;
55090;SDS011;40985;53.180;5.800;2023-04-24T12:19:22;6.82;;;0.30;;
55090;SDS011;40985;53.180;5.800;2023-04-24T12:21:59;1.58;;;0.10;;
55090;SDS011;40985;53.180;5.800;2023-04-24T12:24:25;2.20;;;0.20;;
55090;SDS011;40985;53.180;5.800;2023-04-24T12:26:51;1.90;;;0.10;;
55090;SDS011;40985;53.180;5.800;2023-04-24T12:29:21;2.90;;;0.25;;
55090;SDS011;40985;53.180;5.800;2023-04-24T12:31:47;3.83;;;0.10;;
55090;SDS011;40985;53.180;5.800;2023-04-24T12:34:22;3.85;;;0.40;;
55090;SDS011;40985;53.180;5.800;2023-04-24T12:36:50;1.85;;;0.20;;
55090;SDS011;40985;53.180;5.800;2023-04-24T12:39:18;5.30;;;0.40;;
55090;SDS011;40985;53.180;5.800;2023-04-24T12:42:25;1.50;;;0.10;;
55090;SDS011;40985;53.180;5.800;2023-04-24T12:44:36;3.38;;;0.10;;
55090;SDS011;40985;53.180;5.800;2023-04-24T12:47:02;2.40;;;0.10;;
55090;SDS011;40985;53.180;5.800;2023-04-24T12:49:31;1.10;;;0.20;;
55090;SDS011;40985;53.180;5.800;2023-04-24T12:51:57;2.58;;;0.20;;
55090;SDS011;40985;53.180;5.800;2023-04-24T12:54:23;4.53;;;0.20;;
55090;SDS011;40985;53.180;5.800;2023-04-24T12:56:49;4.72;;;0.17;;
55090;SDS011;40985;53.180;5.800;2023-04-24T12:59:15;4.28;;;0.20;;
55090;SDS011;40985;53.180;5.800;2023-04-24T13:01:41;5.07;;;0.38;;
55090;SDS011;40985;53.180;5.800;2023-04-24T13:04:06;3.35;;;0.30;;
55090;SDS011;40985;53.180;5.800;2023-04-24T13:06:32;6.45;;;0.60;;
55090;SDS011;40985;53.180;5.800;2023-04-24T13:08:58;7.82;;;0.60;;
55090;SDS011;40985;53.180;5.800;2023-04-24T13:11:24;5.78;;;0.30;;
55090;SDS011;40985;53.180;5.800;2023-04-24T13:13:50;8.07;;;0.55;;
55090;SDS011;40985;53.180;5.800;2023-04-24T13:16:15;7.13;;;0.60;;
55090;SDS011;40985;53.180;5.800;2023-04-24T13:18:42;9.88;;;0.57;;
55090;SDS011;40985;53.180;5.800;2023-04-24T13:21:07;8.38;;;0.70;;
55090;SDS011;40985;53.180;5.800;2023-04-24T13:23:33;12.32;;;1.58;;
55090;SDS011;40985;53.180;5.800;2023-04-24T13:25:59;8.68;;;1.40;;
55090;SDS011;40985;53.180;5.800;2023-04-24T13:28:26;10.27;;;0.95;;
55090;SDS011;40985;53.180;5.800;2023-04-24T13:30:52;8.30;;;0.82;;
55090;SDS011;40985;53.180;5.800;2023-04-24T13:33:18;4.95;;;0.30;;
55090;SDS011;40985;53.180;5.800;2023-04-24T13:35:44;5.35;;;0.30;;
55090;SDS011;40985;53.180;5.800;2023-04-24T13:38:09;2.90;;;0.20;;
55090;SDS011;40985;53.180;5.800;2023-04-24T13:40:35;3.92;;;0.20;;
55090;SDS011;40985;53.180;5.800;2023-04-24T13:43:01;7.00;;;0.73;;
55090;SDS011;40985;53.180;5.800;2023-04-24T13:45:27;5.63;;;0.43;;
55090;SDS011;40985;53.180;5.800;2023-04-24T13:47:53;5.05;;;0.65;;
55090;SDS011;40985;53.180;5.800;2023-04-24T13:50:19;7.82;;;0.50;;
55090;SDS011;40985;53.180;5.800;2023-04-24T13:52:45;7.05;;;0.60;;
55090;SDS011;40985;53.180;5.800;2023-04-24T13:55:11;7.43;;;0.85;;
55090;SDS011;40985;53.180;5.800;2023-04-24T13:57:37;7.32;;;0.75;;
55090;SDS011;40985;53.180;5.800;2023-04-24T14:00:02;10.20;;;0.80;;
55090;SDS011;40985;53.180;5.800;2023-04-24T14:02:29;9.15;;;1.40;;
55090;SDS011;40985;53.180;5.800;2023-04-24T14:04:55;11.68;;;1.60;;
55090;SDS011;40985;53.180;5.800;2023-04-24T14:07:21;7.78;;;1.17;;
55090;SDS011;40985;53.180;5.800;2023-04-24T14:09:46;12.05;;;1.05;;
55090;SDS011;40985;53.180;5.800;2023-04-24T14:12:12;11.50;;;1.08;;
55090;SDS011;40985;53.180;5.800;2023-04-24T14:14:39;11.07;;;1.48;;
55090;SDS011;40985;53.180;5.800;2023-04-24T14:17:05;8.82;;;1.10;;
55090;SDS011;40985;53.180;5.800;2023-04-24T14:19:30;14.40;;;1.92;;
55090;SDS011;40985;53.180;5.800;2023-04-24T14:21:56;15.45;;;1.83;;
55090;SDS011;40985;53.180;5.800;2023-04-24T14:24:23;10.30;;;1.48;;
55090;SDS011;40985;53.180;5.800;2023-04-24T14:26:49;9.23;;;1.48;;
55090;SDS011;40985;53.180;5.800;2023-04-24T14:29:14;13.90;;;1.88;;
55090;SDS011;40985;53.180;5.800;2023-04-24T14:31:41;8.10;;;1.30;;
55090;SDS011;40985;53.180;5.800;2023-04-24T14:34:07;9.77;;;1.63;;
55090;SDS011;40985;53.180;5.800;2023-04-24T14:36:34;8.00;;;1.75;;
55090;SDS011;40985;53.180;5.800;2023-04-24T14:39:00;8.43;;;1.00;;
55090;SDS011;40985;53.180;5.800;2023-04-24T14:41:28;10.27;;;1.50;;
55090;SDS011;40985;53.180;5.800;2023-04-24T14:43:54;11.27;;;1.48;;
55090;SDS011;40985;53.180;5.800;2023-04-24T14:46:19;10.40;;;1.13;;
55090;SDS011;40985;53.180;5.800;2023-04-24T14:48:45;15.25;;;1.83;;
55090;SDS011;40985;53.180;5.800;2023-04-24T14:51:11;10.13;;;1.77;;
55090;SDS011;40985;53.180;5.800;2023-04-24T14:53:37;18.60;;;2.80;;
55090;SDS011;40985;53.180;5.800;2023-04-24T14:56:02;14.82;;;2.05;;